Neverland — IBCT — position and weather

sailwx.info

Track history (hours):
 
Tides and Currents Weather Stations Pressure Air Temp Water Temp Dewpoint Dewpoint Depression Visibility Wind Speed Wind Dir Waves Ship Positions

Neverland

Last reported at 2018-Apr-20 23:47 UTC. Time now 2018-Apr-21 00:24 UTC.
Position N 38°22' E 014°23'.

Length 239 m; draft 13 m.

Type: Tanker. MMSI: 247148700.

Date/timePositionNaut miles runAvg speedWind from/ knotsBaromVisibWave heightAir tempDewpointWater temp
2018-Apr-20 23:47N 38°22' E 014°23'2 6.6
2018-Apr-20 23:29N 38°22' E 014°21'4 6.7
2018-Apr-20 22:57N 38°22' E 014°16'3 6.8
2018-Apr-20 22:30N 38°22' E 014°12'3 6.7
2018-Apr-20 22:00N 38°23' E 014°08'4 6.6
2018-Apr-20 21:26N 38°22' E 014°03'3 6.4
2018-Apr-20 20:57N 38°22' E 013°59'3 6.4
2018-Apr-20 20:30N 38°22' E 013°56'3 6.3
2018-Apr-20 20:00N 38°22' E 013°52'3 2.5
2018-Apr-20 18:49N 38°22' E 013°48'3 6.8
2018-Apr-20 18:22N 38°22' E 013°44'2 6.9
2018-Apr-20 18:00N 38°22' E 013°41'3 6.8
2018-Apr-20 17:30N 38°22' E 013°37'3 6.6
2018-Apr-20 17:00N 38°22' E 013°32'3 6.7
2018-Apr-20 16:29N 38°22' E 013°28'3 6.5
2018-Apr-20 16:00N 38°23' E 013°24'3 6.1
2018-Apr-20 15:30N 38°24' E 013°20'1 1.9
2018-Apr-20 15:00N 38°23' E 013°19'1 1.1
2018-Apr-20 14:30N 38°23' E 013°19'2 4.8
2018-Apr-20 14:00N 38°22' E 013°16'2 3.5
2018-Apr-20 13:30N 38°23' E 013°14'1 1.6
2018-Apr-20 13:00N 38°22' E 013°13'2 3.8
2018-Apr-20 12:30N 38°22' E 013°11'4 8.3
2018-Apr-20 12:00N 38°22' E 013°06'510.0
2018-Apr-20 11:30N 38°22' E 012°59'3 6.4
2018-Apr-20 11:00N 38°22' E 012°55'3 5.9
2018-Apr-20 10:29N 38°22' E 012°51'3 6.1
2018-Apr-20 10:00N 38°22' E 012°47'4 6.3
2018-Apr-20 09:23N 38°21' E 012°43'7 6.5
2018-Apr-20 08:18N 38°20' E 012°34'115 4.0
2018-Apr-19 03:39N 36°36' E 013°34'2 5.8
2018-Apr-19 03:16N 36°35' E 013°37'2 5.8
2018-Apr-19 02:56N 36°34' E 013°39'3 5.8
2018-Apr-19 02:23N 36°32' E 013°42'3 5.9
2018-Apr-19 01:53N 36°30' E 013°45'2 5.5
2018-Apr-19 01:30N 36°29' E 013°47'3 5.9
2018-Apr-19 01:00N 36°28' E 013°50'3 5.8
2018-Apr-19 00:30N 36°26' E 013°53'3 6.1
2018-Apr-19 00:00N 36°24' E 013°57'3 6.7
2018-Apr-18 23:30N 36°23' E 014°00'3 5.6
2018-Apr-18 23:00N 36°21' E 014°03'3 6.3
2018-Apr-18 22:29N 36°19' E 014°06'3 5.7
2018-Apr-18 22:00N 36°18' E 014°09'3 6.3
2018-Apr-18 21:28N 36°16' E 014°13'3 6.1
2018-Apr-18 21:00N 36°14' E 014°16'3 6.5
2018-Apr-18 20:30N 36°13' E 014°19'3 5.5
2018-Apr-18 20:00N 36°11' E 014°22'3 5.8
2018-Apr-18 19:29N 36°10' E 014°25'3 6.3
2018-Apr-18 19:00N 36°08' E 014°29'3 6.1
2018-Apr-18 18:30N 36°06' E 014°32'3 6.0
2018-Apr-18 18:00N 36°05' E 014°35'3 6.2
2018-Apr-18 17:30N 36°04' E 014°39'3 6.3
2018-Apr-18 17:00N 36°03' E 014°43'3 6.4
2018-Apr-18 16:28N 36°02' E 014°46'3 5.8
2018-Apr-18 15:59N 36°02' E 014°50'7 5.4
2018-Apr-18 14:44N 35°56' E 014°54'3 7.0
2018-Apr-18 14:18N 35°53' E 014°54'1 1.2
2018-Apr-18 13:15N 35°52' E 014°53'0 0.1
2018-Apr-18 12:53N 35°52' E 014°53'0 0.0
2018-Apr-18 12:29N 35°52' E 014°53'0 0.0
2018-Apr-18 11:44N 35°52' E 014°53'0 0.0
2018-Apr-18 11:23N 35°52' E 014°53'0 0.0
2018-Apr-18 10:59N 35°52' E 014°53'0 0.0
2018-Apr-18 10:27N 35°52' E 014°53'0 0.0
2018-Apr-18 09:59N 35°52' E 014°53'0 0.0
2018-Apr-18 09:29N 35°52' E 014°53'0 0.0
2018-Apr-18 08:56N 35°52' E 014°53'0 0.1
2018-Apr-18 05:43N 35°52' E 014°53'0 0.1
2018-Apr-18 05:26N 35°52' E 014°53'0 0.0
2018-Apr-18 04:08N 35°52' E 014°53'0 0.0
2018-Apr-18 03:56N 35°52' E 014°53'0 0.1
2018-Apr-18 03:29N 35°52' E 014°53'0 0.0
2018-Apr-18 02:50N 35°52' E 014°53'0 0.0
2018-Apr-18 02:15N 35°52' E 014°53'0 0.1
2018-Apr-18 01:54N 35°52' E 014°53'0 0.0
2018-Apr-18 01:23N 35°52' E 014°53'0 0.0
2018-Apr-18 00:32N 35°52' E 014°53'0 0.0
2018-Apr-18 00:20N 35°52' E 014°53'0 0.0
2018-Apr-17 23:32N 35°52' E 014°53'0 0.0
2018-Apr-17 23:30N 35°52' E 014°53'0 0.0
2018-Apr-17 22:59N 35°52' E 014°53'0 0.0
2018-Apr-17 22:29N 35°52' E 014°53'0 0.0
2018-Apr-17 21:59N 35°52' E 014°53'0 0.0
2018-Apr-17 21:26N 35°52' E 014°53'0 0.0
2018-Apr-17 20:59N 35°52' E 014°53'0 0.0
2018-Apr-17 19:53N 35°52' E 014°53'0 0.0
2018-Apr-17 19:14N 35°52' E 014°53'0 0.0
2018-Apr-17 18:53N 35°52' E 014°53'0 0.0
2018-Apr-17 18:21N 35°52' E 014°53'0 0.0
2018-Apr-17 17:56N 35°52' E 014°53'0 0.0
2018-Apr-17 16:05N 35°52' E 014°53'0 0.1
2018-Apr-17 15:59N 35°52' E 014°53'0 0.1
2018-Apr-17 15:29N 35°52' E 014°53'0 0.0
2018-Apr-17 14:59N 35°52' E 014°53'0 0.0
2018-Apr-17 14:29N 35°52' E 014°53'0 0.1
2018-Apr-17 13:59N 35°52' E 014°53'0 0.0
2018-Apr-17 13:29N 35°52' E 014°53'0 0.0
2018-Apr-17 12:58N 35°52' E 014°53'0 0.0
2018-Apr-17 12:28N 35°52' E 014°53'0 0.0
2018-Apr-17 11:58N 35°52' E 014°53'0 0.0
2018-Apr-17 11:28N 35°52' E 014°53'0 0.0
2018-Apr-17 10:55N 35°52' E 014°53'0 0.0
2018-Apr-17 10:27N 35°52' E 014°53'0 0.0
2018-Apr-17 09:58N 35°52' E 014°53'0 0.0
2018-Apr-17 09:11N 35°52' E 014°53'0 0.1
2018-Apr-17 08:49N 35°52' E 014°53'0 0.0
2018-Apr-17 08:10N 35°52' E 014°53'0 0.0
2018-Apr-17 06:49N 35°52' E 014°53'0 0.1
2018-Apr-17 06:28N 35°52' E 014°53'0 0.0
2018-Apr-17 05:55N 35°52' E 014°53'0 0.0
2018-Apr-17 05:28N 35°52' E 014°53'0 0.1
2018-Apr-17 04:58N 35°52' E 014°53'0 0.1
2018-Apr-17 04:28N 35°52' E 014°53'0 0.0
2018-Apr-17 03:51N 35°52' E 014°53'0 0.0
2018-Apr-17 02:49N 35°52' E 014°53'0 0.1
2018-Apr-17 02:27N 35°52' E 014°53'0 0.0
2018-Apr-17 01:45N 35°52' E 014°53'0 0.0
2018-Apr-17 01:30N 35°52' E 014°53'0 0.0
2018-Apr-17 00:42N 35°52' E 014°53'0 0.0
2018-Apr-17 00:25N 35°52' E 014°53'0 0.0
2018-Apr-16 23:17N 35°52' E 014°53'0 0.0
2018-Apr-16 21:54N 35°52' E 014°53'0 0.0
2018-Apr-16 21:15N 35°52' E 014°53'0 0.1
2018-Apr-16 20:55N 35°52' E 014°53'0 0.0
2018-Apr-16 20:30N 35°52' E 014°53'0 0.0
2018-Apr-16 10:28N 35°52' E 014°53'0 0.0
2018-Apr-16 06:23N 35°52' E 014°53'0 0.1
2018-Apr-16 04:50N 35°52' E 014°53'0 0.2
2018-Apr-16 04:18N 35°52' E 014°53'0 0.1
2018-Apr-16 03:25N 35°52' E 014°53'0 0.1
2018-Apr-16 02:57N 35°52' E 014°53'0 0.0
2018-Apr-16 02:29N 35°52' E 014°53'0 0.0
2018-Apr-16 01:44N 35°52' E 014°53'0 0.0
2018-Apr-16 01:25N 35°52' E 014°53'0 0.1
2018-Apr-16 00:54N 35°52' E 014°53'0 0.0
2018-Apr-16 00:10N 35°52' E 014°53'0 0.1
2018-Apr-15 23:56N 35°52' E 014°53'0 0.0
2018-Apr-15 23:21N 35°52' E 014°53'0 0.1
2018-Apr-15 23:00N 35°52' E 014°53'0 0.0
2018-Apr-15 22:27N 35°52' E 014°53'0 0.0
2018-Apr-15 21:48N 35°52' E 014°53'0 0.0
2018-Apr-15 21:27N 35°52' E 014°53'0 0.1
2018-Apr-15 21:00N 35°52' E 014°53'0 0.0
2018-Apr-15 20:08N 35°52' E 014°53'0 0.1
2018-Apr-15 19:54N 35°52' E 014°53'0 0.0
2018-Apr-15 19:24N 35°52' E 014°53'0 0.0
2018-Apr-15 19:00N 35°52' E 014°53'0 0.0
2018-Apr-15 18:24N 35°52' E 014°53'0 0.0
2018-Apr-15 17:59N 35°52' E 014°53'0 0.1
2018-Apr-15 17:10N 35°52' E 014°53'0 0.4
2018-Apr-15 16:56N 35°52' E 014°53'0 0.0
2018-Apr-15 16:03N 35°52' E 014°53'0 0.3
2018-Apr-15 16:00N 35°52' E 014°53'0 0.0
2018-Apr-15 15:29N 35°52' E 014°53'0 0.1
2018-Apr-15 14:55N 35°52' E 014°53'0 0.1
2018-Apr-15 14:30N 35°52' E 014°53'0 0.0
2018-Apr-15 13:42N 35°52' E 014°53'0 0.1
2018-Apr-15 13:21N 35°52' E 014°53'0 0.0
2018-Apr-15 12:54N 35°52' E 014°53'0 0.0
2018-Apr-15 09:11N 35°52' E 014°53'0 0.1
2018-Apr-15 08:47N 35°52' E 014°53'0 0.0
2018-Apr-15 08:19N 35°52' E 014°53'0 0.1
2018-Apr-15 07:39N 35°52' E 014°53'0 0.1
2018-Apr-15 07:17N 35°52' E 014°53'0 0.1
2018-Apr-15 06:51N 35°52' E 014°53'0 0.1
2018-Apr-15 06:27N 35°52' E 014°53'0 0.0
2018-Apr-15 05:54N 35°52' E 014°53'0 0.0
2018-Apr-15 05:25N 35°52' E 014°53'0 0.0
2018-Apr-15 05:00N 35°52' E 014°53'0 0.0
2018-Apr-15 04:28N 35°52' E 014°53'0 0.0
2018-Apr-15 04:00N 35°52' E 014°53'0 0.0
2018-Apr-15 03:18N 35°52' E 014°53'0 0.2
2018-Apr-15 03:00N 35°52' E 014°53'0 0.1
2018-Apr-15 02:25N 35°52' E 014°53'0 0.0
2018-Apr-15 01:50N 35°52' E 014°53'0 0.1
2018-Apr-15 01:07N 35°52' E 014°53'0 0.1
2018-Apr-15 01:00N 35°52' E 014°53'0 0.1
2018-Apr-15 00:12N 35°52' E 014°53'0 0.3
2018-Apr-15 00:00N 35°52' E 014°53'0 0.1
2018-Apr-14 23:30N 35°52' E 014°53'0 0.1
2018-Apr-14 23:00N 35°52' E 014°53'0 0.1
2018-Apr-14 22:28N 35°52' E 014°53'0 0.0
2018-Apr-14 21:50N 35°52' E 014°53'0 0.0
2018-Apr-14 21:10N 35°52' E 014°53'0 0.0
2018-Apr-14 20:07N 35°52' E 014°53'0 0.1
2018-Apr-14 19:44N 35°52' E 014°53'0 0.0
2018-Apr-14 19:16N 35°52' E 014°53'0 0.1
2018-Apr-14 18:46N 35°52' E 014°53'0 0.1
2018-Apr-14 18:17N 35°52' E 014°53'0 0.0
2018-Apr-14 17:47N 35°52' E 014°53'0 0.0
2018-Apr-14 15:10N 35°52' E 014°53'0 0.0
2018-Apr-14 14:53N 35°52' E 014°53'0 0.0
2018-Apr-14 11:12N 35°52' E 014°53'0 0.0
2018-Apr-14 10:10N 35°52' E 014°53'0 0.0
2018-Apr-14 09:49N 35°52' E 014°53'0 0.1
2018-Apr-14 09:28N 35°52' E 014°53'0 0.0
2018-Apr-14 08:10N 35°52' E 014°53'0 0.0
2018-Apr-14 07:56N 35°52' E 014°53'0 0.0
2018-Apr-14 07:22N 35°52' E 014°53'0 0.0
2018-Apr-14 06:55N 35°52' E 014°53'0 0.0
2018-Apr-14 06:06N 35°52' E 014°53'0 0.0
2018-Apr-14 05:43N 35°52' E 014°53'0 0.0
2018-Apr-14 05:28N 35°52' E 014°53'0 0.0
2018-Apr-14 04:58N 35°52' E 014°53'0 0.1
2018-Apr-14 04:28N 35°52' E 014°53'0 0.0
2018-Apr-14 03:10N 35°52' E 014°53'0 0.1
2018-Apr-14 02:55N 35°52' E 014°53'0 0.0
2018-Apr-14 02:22N 35°52' E 014°53'0 0.0
2018-Apr-13 23:54N 35°52' E 014°53'0 0.0
2018-Apr-13 23:11N 35°52' E 014°53'0 0.0
2018-Apr-13 22:56N 35°52' E 014°53'0 0.0
2018-Apr-13 22:22N 35°52' E 014°53'0 0.0
2018-Apr-13 21:52N 35°52' E 014°53'0 0.0
2018-Apr-13 20:55N 35°52' E 014°53'0 0.0
2018-Apr-13 19:10N 35°52' E 014°53'0 0.0
2018-Apr-13 18:59N 35°52' E 014°53'0 0.0
2018-Apr-13 18:30N 35°52' E 014°53'0 0.0
2018-Apr-13 17:58N 35°52' E 014°53'0 0.0
2018-Apr-13 17:14N 35°52' E 014°53'0 0.0
2018-Apr-13 16:48N 35°52' E 014°53'0 0.0
2018-Apr-13 16:28N 35°52' E 014°53'0 0.0
2018-Apr-13 15:57N 35°52' E 014°53'0 0.0
2018-Apr-13 15:30N 35°52' E 014°53'0 0.0
2018-Apr-13 14:57N 35°52' E 014°53'0 0.0
2018-Apr-13 14:24N 35°52' E 014°53'0 0.0
2018-Apr-13 13:52N 35°52' E 014°53'0 0.0
2018-Apr-13 13:24N 35°52' E 014°53'0 0.0
2018-Apr-13 11:02N 35°52' E 014°53'0 0.1
2018-Apr-13 10:42N 35°52' E 014°53'0 0.2
2018-Apr-13 10:22N 35°52' E 014°53'1 2.1
2018-Apr-13 10:00N 35°52' E 014°52'2 5.0
2018-Apr-13 09:30N 35°53' E 014°50'2 1.0
2018-Apr-13 07:35N 35°55' E 014°48'0 0.0
2018-Apr-13 06:33N 35°55' E 014°48'0 0.2
2018-Apr-13 06:29N 35°55' E 014°48'0 0.0
2018-Apr-13 06:00N 35°55' E 014°48'0 0.0
2018-Apr-13 05:30N 35°55' E 014°48'0 0.0
2018-Apr-13 04:53N 35°55' E 014°48'0 0.0
2018-Apr-13 04:29N 35°55' E 014°48'0 0.0
2018-Apr-13 03:59N 35°55' E 014°48'0 0.0
2018-Apr-13 03:29N 35°55' E 014°48'0 0.0
2018-Apr-13 02:56N 35°55' E 014°48'0 0.0
2018-Apr-13 02:29N 35°55' E 014°48'0 0.0
2018-Apr-13 01:59N 35°55' E 014°48'0 0.1
2018-Apr-13 01:29N 35°55' E 014°48'0 0.0
2018-Apr-13 01:00N 35°55' E 014°48'0 0.0
2018-Apr-12 22:47N 35°55' E 014°48'0 0.1
2018-Apr-12 22:30N 35°55' E 014°48'0 0.1
2018-Apr-12 21:59N 35°55' E 014°48'0 0.1
2018-Apr-12 20:29N 35°55' E 014°48'0 0.0
2018-Apr-12 19:59N 35°55' E 014°48'0 0.0
2018-Apr-12 19:29N 35°55' E 014°48'0 0.1
2018-Apr-12 18:59N 35°55' E 014°48'0 0.1
2018-Apr-12 18:26N 35°55' E 014°48'0 0.0
2018-Apr-12 17:59N 35°55' E 014°48'0 0.0
2018-Apr-12 17:13N 35°55' E 014°48'0 0.0
2018-Apr-12 16:54N 35°55' E 014°48'0 0.1
2018-Apr-12 16:26N 35°55' E 014°48'0 0.1
2018-Apr-12 15:15N 35°55' E 014°48'0 0.0
2018-Apr-12 14:49N 35°55' E 014°48'0 0.0
2018-Apr-12 12:12N 35°55' E 014°48'0 0.0
2018-Apr-12 11:58N 35°55' E 014°48'0 0.1
2018-Apr-12 11:26N 35°55' E 014°48'0 1.0
2018-Apr-12 10:59N 35°54' E 014°48'2 3.2
2018-Apr-12 10:30N 35°53' E 014°49'3 5.1
2018-Apr-12 09:55N 35°52' E 014°53'3 7.0
2018-Apr-12 09:28N 35°52' E 014°57'5 8.3
2018-Apr-12 08:51N 35°52' E 015°03'3 7.5
2018-Apr-12 08:30N 35°52' E 015°07'1 0.7
2018-Apr-12 07:31N 35°51' E 015°06'0 1.4
2018-Apr-12 07:24N 35°51' E 015°06'2 4.1
2018-Apr-12 07:00N 35°52' E 015°08'3 0.6
2018-Apr-12 02:00N 35°52' E 015°12'0 0.1
2018-Apr-12 01:30N 35°52' E 015°12'0 0.2
2018-Apr-12 00:37N 35°52' E 015°12'0 0.2
2018-Apr-12 00:28N 35°52' E 015°12'0 0.2
2018-Apr-11 23:59N 35°51' E 015°12'0 0.3
2018-Apr-11 23:23N 35°51' E 015°12'2 0.4
2018-Apr-11 19:05N 35°52' E 015°14'8 3.2
2018-Apr-11 16:32N 35°53' E 015°04'0 1.2
2018-Apr-11 16:30N 35°53' E 015°04'1 1.1
2018-Apr-11 16:00N 35°54' E 015°04'2 3.9
2018-Apr-11 15:27N 35°53' E 015°02'3 6.9
2018-Apr-11 15:00N 35°51' E 014°59'2 4.5
2018-Apr-11 14:29N 35°49' E 014°58'16 4.8
2018-Apr-11 11:07N 35°33' E 014°53'0 0.9
2018-Apr-11 11:00N 35°33' E 014°53'1 1.1
2018-Apr-11 10:28N 35°34' E 014°54'1 1.1
2018-Apr-11 09:57N 35°34' E 014°55'1 1.3
2018-Apr-11 09:30N 35°34' E 014°56'0 0.9
2018-Apr-11 09:00N 35°34' E 014°56'1 1.5
2018-Apr-11 08:30N 35°34' E 014°57'0 0.4
2018-Apr-11 08:00N 35°35' E 014°57'0 0.8
2018-Apr-11 07:30N 35°35' E 014°57'0 0.7
2018-Apr-11 06:59N 35°35' E 014°58'0 0.3
2018-Apr-11 06:30N 35°35' E 014°58'0 0.4
2018-Apr-11 05:59N 35°35' E 014°58'0 0.4
2018-Apr-11 05:30N 35°35' E 014°59'0 0.5
2018-Apr-11 05:00N 35°35' E 014°59'0 0.6
2018-Apr-11 04:29N 35°34' E 014°59'0 0.6
2018-Apr-11 04:00N 35°34' E 014°59'0 0.3
2018-Apr-11 03:30N 35°34' E 014°59'2 0.8
2018-Apr-11 01:09N 35°34' E 014°57'1 2.5
2018-Apr-11 00:42N 35°35' E 014°56'1 4.4
2018-Apr-11 00:30N 35°36' E 014°56'2 4.4
2018-Apr-11 00:00N 35°38' E 014°55'  
Track history (hours):
 
Tides and Currents Weather Stations Pressure Air Temp Water Temp Dewpoint Dewpoint Depression Visibility Wind Speed Wind Dir Waves Ship Positions

Neverland

Last reported at 2018-Apr-20 23:47 UTC. Time now 2018-Apr-21 00:24 UTC.
Position N 38°22' E 014°23'.

Length 239 m; draft 13 m.

Type: Tanker. MMSI: 247148700.

Date/timePositionNaut miles runAvg speedWind from/ knotsBaromVisibWave heightAir tempDewpointWater temp
2018-Apr-20 23:47N 38°22' E 014°23'2 6.6
2018-Apr-20 23:29N 38°22' E 014°21'4 6.7
2018-Apr-20 22:57N 38°22' E 014°16'3 6.8
2018-Apr-20 22:30N 38°22' E 014°12'3 6.7
2018-Apr-20 22:00N 38°23' E 014°08'4 6.6
2018-Apr-20 21:26N 38°22' E 014°03'3 6.4
2018-Apr-20 20:57N 38°22' E 013°59'3 6.4
2018-Apr-20 20:30N 38°22' E 013°56'3 6.3
2018-Apr-20 20:00N 38°22' E 013°52'3 2.5
2018-Apr-20 18:49N 38°22' E 013°48'3 6.8
2018-Apr-20 18:22N 38°22' E 013°44'2 6.9
2018-Apr-20 18:00N 38°22' E 013°41'3 6.8
2018-Apr-20 17:30N 38°22' E 013°37'3 6.6
2018-Apr-20 17:00N 38°22' E 013°32'3 6.7
2018-Apr-20 16:29N 38°22' E 013°28'3 6.5
2018-Apr-20 16:00N 38°23' E 013°24'3 6.1
2018-Apr-20 15:30N 38°24' E 013°20'1 1.9
2018-Apr-20 15:00N 38°23' E 013°19'1 1.1
2018-Apr-20 14:30N 38°23' E 013°19'2 4.8
2018-Apr-20 14:00N 38°22' E 013°16'2 3.5
2018-Apr-20 13:30N 38°23' E 013°14'1 1.6
2018-Apr-20 13:00N 38°22' E 013°13'2 3.8
2018-Apr-20 12:30N 38°22' E 013°11'4 8.3
2018-Apr-20 12:00N 38°22' E 013°06'510.0
2018-Apr-20 11:30N 38°22' E 012°59'3 6.4
2018-Apr-20 11:00N 38°22' E 012°55'3 5.9
2018-Apr-20 10:29N 38°22' E 012°51'3 6.1
2018-Apr-20 10:00N 38°22' E 012°47'4 6.3
2018-Apr-20 09:23N 38°21' E 012°43'7 6.5
2018-Apr-20 08:18N 38°20' E 012°34'115 4.0
2018-Apr-19 03:39N 36°36' E 013°34'2 5.8
2018-Apr-19 03:16N 36°35' E 013°37'2 5.8
2018-Apr-19 02:56N 36°34' E 013°39'3 5.8
2018-Apr-19 02:23N 36°32' E 013°42'3 5.9
2018-Apr-19 01:53N 36°30' E 013°45'2 5.5
2018-Apr-19 01:30N 36°29' E 013°47'3 5.9
2018-Apr-19 01:00N 36°28' E 013°50'3 5.8
2018-Apr-19 00:30N 36°26' E 013°53'3 6.1
2018-Apr-19 00:00N 36°24' E 013°57'3 6.7
2018-Apr-18 23:30N 36°23' E 014°00'3 5.6
2018-Apr-18 23:00N 36°21' E 014°03'3 6.3
2018-Apr-18 22:29N 36°19' E 014°06'3 5.7
2018-Apr-18 22:00N 36°18' E 014°09'3 6.3
2018-Apr-18 21:28N 36°16' E 014°13'3 6.1
2018-Apr-18 21:00N 36°14' E 014°16'3 6.5
2018-Apr-18 20:30N 36°13' E 014°19'3 5.5
2018-Apr-18 20:00N 36°11' E 014°22'3 5.8
2018-Apr-18 19:29N 36°10' E 014°25'3 6.3
2018-Apr-18 19:00N 36°08' E 014°29'3 6.1
2018-Apr-18 18:30N 36°06' E 014°32'3 6.0
2018-Apr-18 18:00N 36°05' E 014°35'3 6.2
2018-Apr-18 17:30N 36°04' E 014°39'3 6.3
2018-Apr-18 17:00N 36°03' E 014°43'3 6.4
2018-Apr-18 16:28N 36°02' E 014°46'3 5.8
2018-Apr-18 15:59N 36°02' E 014°50'7 5.4
2018-Apr-18 14:44N 35°56' E 014°54'3 7.0
2018-Apr-18 14:18N 35°53' E 014°54'1 1.2
2018-Apr-18 13:15N 35°52' E 014°53'0 0.1
2018-Apr-18 12:53N 35°52' E 014°53'0 0.0
2018-Apr-18 12:29N 35°52' E 014°53'0 0.0
2018-Apr-18 11:44N 35°52' E 014°53'0 0.0
2018-Apr-18 11:23N 35°52' E 014°53'0 0.0
2018-Apr-18 10:59N 35°52' E 014°53'0 0.0
2018-Apr-18 10:27N 35°52' E 014°53'0 0.0
2018-Apr-18 09:59N 35°52' E 014°53'0 0.0
2018-Apr-18 09:29N 35°52' E 014°53'0 0.0
2018-Apr-18 08:56N 35°52' E 014°53'0 0.1
2018-Apr-18 05:43N 35°52' E 014°53'0 0.1
2018-Apr-18 05:26N 35°52' E 014°53'0 0.0
2018-Apr-18 04:08N 35°52' E 014°53'0 0.0
2018-Apr-18 03:56N 35°52' E 014°53'0 0.1
2018-Apr-18 03:29N 35°52' E 014°53'0 0.0
2018-Apr-18 02:50N 35°52' E 014°53'0 0.0
2018-Apr-18 02:15N 35°52' E 014°53'0 0.1
2018-Apr-18 01:54N 35°52' E 014°53'0 0.0
2018-Apr-18 01:23N 35°52' E 014°53'0 0.0
2018-Apr-18 00:32N 35°52' E 014°53'0 0.0
2018-Apr-18 00:20N 35°52' E 014°53'0 0.0
2018-Apr-17 23:32N 35°52' E 014°53'0 0.0
2018-Apr-17 23:30N 35°52' E 014°53'0 0.0
2018-Apr-17 22:59N 35°52' E 014°53'0 0.0
2018-Apr-17 22:29N 35°52' E 014°53'0 0.0
2018-Apr-17 21:59N 35°52' E 014°53'0 0.0
2018-Apr-17 21:26N 35°52' E 014°53'0 0.0
2018-Apr-17 20:59N 35°52' E 014°53'0 0.0
2018-Apr-17 19:53N 35°52' E 014°53'0 0.0
2018-Apr-17 19:14N 35°52' E 014°53'0 0.0
2018-Apr-17 18:53N 35°52' E 014°53'0 0.0
2018-Apr-17 18:21N 35°52' E 014°53'0 0.0
2018-Apr-17 17:56N 35°52' E 014°53'0 0.0
2018-Apr-17 16:05N 35°52' E 014°53'0 0.1
2018-Apr-17 15:59N 35°52' E 014°53'0 0.1
2018-Apr-17 15:29N 35°52' E 014°53'0 0.0
2018-Apr-17 14:59N 35°52' E 014°53'0 0.0
2018-Apr-17 14:29N 35°52' E 014°53'0 0.1
2018-Apr-17 13:59N 35°52' E 014°53'0 0.0
2018-Apr-17 13:29N 35°52' E 014°53'0 0.0
2018-Apr-17 12:58N 35°52' E 014°53'0 0.0
2018-Apr-17 12:28N 35°52' E 014°53'0 0.0
2018-Apr-17 11:58N 35°52' E 014°53'0 0.0
2018-Apr-17 11:28N 35°52' E 014°53'0 0.0
2018-Apr-17 10:55N 35°52' E 014°53'0 0.0
2018-Apr-17 10:27N 35°52' E 014°53'0 0.0
2018-Apr-17 09:58N 35°52' E 014°53'0 0.0
2018-Apr-17 09:11N 35°52' E 014°53'0 0.1
2018-Apr-17 08:49N 35°52' E 014°53'0 0.0
2018-Apr-17 08:10N 35°52' E 014°53'0 0.0
2018-Apr-17 06:49N 35°52' E 014°53'0 0.1
2018-Apr-17 06:28N 35°52' E 014°53'0 0.0
2018-Apr-17 05:55N 35°52' E 014°53'0 0.0
2018-Apr-17 05:28N 35°52' E 014°53'0 0.1
2018-Apr-17 04:58N 35°52' E 014°53'0 0.1
2018-Apr-17 04:28N 35°52' E 014°53'0 0.0
2018-Apr-17 03:51N 35°52' E 014°53'0 0.0
2018-Apr-17 02:49N 35°52' E 014°53'0 0.1
2018-Apr-17 02:27N 35°52' E 014°53'0 0.0
2018-Apr-17 01:45N 35°52' E 014°53'0 0.0
2018-Apr-17 01:30N 35°52' E 014°53'0 0.0
2018-Apr-17 00:42N 35°52' E 014°53'0 0.0
2018-Apr-17 00:25N 35°52' E 014°53'0 0.0
2018-Apr-16 23:17N 35°52' E 014°53'0 0.0
2018-Apr-16 21:54N 35°52' E 014°53'0 0.0
2018-Apr-16 21:15N 35°52' E 014°53'0 0.1
2018-Apr-16 20:55N 35°52' E 014°53'0 0.0
2018-Apr-16 20:30N 35°52' E 014°53'0 0.0
2018-Apr-16 10:28N 35°52' E 014°53'0 0.0
2018-Apr-16 06:23N 35°52' E 014°53'0 0.1
2018-Apr-16 04:50N 35°52' E 014°53'0 0.2
2018-Apr-16 04:18N 35°52' E 014°53'0 0.1
2018-Apr-16 03:25N 35°52' E 014°53'0 0.1
2018-Apr-16 02:57N 35°52' E 014°53'0 0.0
2018-Apr-16 02:29N 35°52' E 014°53'0 0.0
2018-Apr-16 01:44N 35°52' E 014°53'0 0.0
2018-Apr-16 01:25N 35°52' E 014°53'0 0.1
2018-Apr-16 00:54N 35°52' E 014°53'0 0.0
2018-Apr-16 00:10N 35°52' E 014°53'0 0.1
2018-Apr-15 23:56N 35°52' E 014°53'0 0.0
2018-Apr-15 23:21N 35°52' E 014°53'0 0.1
2018-Apr-15 23:00N 35°52' E 014°53'0 0.0
2018-Apr-15 22:27N 35°52' E 014°53'0 0.0
2018-Apr-15 21:48N 35°52' E 014°53'0 0.0
2018-Apr-15 21:27N 35°52' E 014°53'0 0.1
2018-Apr-15 21:00N 35°52' E 014°53'0 0.0
2018-Apr-15 20:08N 35°52' E 014°53'0 0.1
2018-Apr-15 19:54N 35°52' E 014°53'0 0.0
2018-Apr-15 19:24N 35°52' E 014°53'0 0.0
2018-Apr-15 19:00N 35°52' E 014°53'0 0.0
2018-Apr-15 18:24N 35°52' E 014°53'0 0.0
2018-Apr-15 17:59N 35°52' E 014°53'0 0.1
2018-Apr-15 17:10N 35°52' E 014°53'0 0.4
2018-Apr-15 16:56N 35°52' E 014°53'0 0.0
2018-Apr-15 16:03N 35°52' E 014°53'0 0.3
2018-Apr-15 16:00N 35°52' E 014°53'0 0.0
2018-Apr-15 15:29N 35°52' E 014°53'0 0.1
2018-Apr-15 14:55N 35°52' E 014°53'0 0.1
2018-Apr-15 14:30N 35°52' E 014°53'0 0.0
2018-Apr-15 13:42N 35°52' E 014°53'0 0.1
2018-Apr-15 13:21N 35°52' E 014°53'0 0.0
2018-Apr-15 12:54N 35°52' E 014°53'0 0.0
2018-Apr-15 09:11N 35°52' E 014°53'0 0.1
2018-Apr-15 08:47N 35°52' E 014°53'0 0.0
2018-Apr-15 08:19N 35°52' E 014°53'0 0.1
2018-Apr-15 07:39N 35°52' E 014°53'0 0.1
2018-Apr-15 07:17N 35°52' E 014°53'0 0.1
2018-Apr-15 06:51N 35°52' E 014°53'0 0.1
2018-Apr-15 06:27N 35°52' E 014°53'0 0.0
2018-Apr-15 05:54N 35°52' E 014°53'0 0.0
2018-Apr-15 05:25N 35°52' E 014°53'0 0.0
2018-Apr-15 05:00N 35°52' E 014°53'0 0.0
2018-Apr-15 04:28N 35°52' E 014°53'0 0.0
2018-Apr-15 04:00N 35°52' E 014°53'0 0.0
2018-Apr-15 03:18N 35°52' E 014°53'0 0.2
2018-Apr-15 03:00N 35°52' E 014°53'0 0.1
2018-Apr-15 02:25N 35°52' E 014°53'0 0.0
2018-Apr-15 01:50N 35°52' E 014°53'0 0.1
2018-Apr-15 01:07N 35°52' E 014°53'0 0.1
2018-Apr-15 01:00N 35°52' E 014°53'0 0.1
2018-Apr-15 00:12N 35°52' E 014°53'0 0.3
2018-Apr-15 00:00N 35°52' E 014°53'0 0.1
2018-Apr-14 23:30N 35°52' E 014°53'0 0.1
2018-Apr-14 23:00N 35°52' E 014°53'0 0.1
2018-Apr-14 22:28N 35°52' E 014°53'0 0.0
2018-Apr-14 21:50N 35°52' E 014°53'0 0.0
2018-Apr-14 21:10N 35°52' E 014°53'0 0.0
2018-Apr-14 20:07N 35°52' E 014°53'0 0.1
2018-Apr-14 19:44N 35°52' E 014°53'0 0.0
2018-Apr-14 19:16N 35°52' E 014°53'0 0.1
2018-Apr-14 18:46N 35°52' E 014°53'0 0.1
2018-Apr-14 18:17N 35°52' E 014°53'0 0.0
2018-Apr-14 17:47N 35°52' E 014°53'0 0.0
2018-Apr-14 15:10N 35°52' E 014°53'0 0.0
2018-Apr-14 14:53N 35°52' E 014°53'0 0.0
2018-Apr-14 11:12N 35°52' E 014°53'0 0.0
2018-Apr-14 10:10N 35°52' E 014°53'0 0.0
2018-Apr-14 09:49N 35°52' E 014°53'0 0.1
2018-Apr-14 09:28N 35°52' E 014°53'0 0.0
2018-Apr-14 08:10N 35°52' E 014°53'0 0.0
2018-Apr-14 07:56N 35°52' E 014°53'0 0.0
2018-Apr-14 07:22N 35°52' E 014°53'0 0.0
2018-Apr-14 06:55N 35°52' E 014°53'0 0.0
2018-Apr-14 06:06N 35°52' E 014°53'0 0.0
2018-Apr-14 05:43N 35°52' E 014°53'0 0.0
2018-Apr-14 05:28N 35°52' E 014°53'0 0.0
2018-Apr-14 04:58N 35°52' E 014°53'0 0.1
2018-Apr-14 04:28N 35°52' E 014°53'0 0.0
2018-Apr-14 03:10N 35°52' E 014°53'0 0.1
2018-Apr-14 02:55N 35°52' E 014°53'0 0.0
2018-Apr-14 02:22N 35°52' E 014°53'0 0.0
2018-Apr-13 23:54N 35°52' E 014°53'0 0.0
2018-Apr-13 23:11N 35°52' E 014°53'0 0.0
2018-Apr-13 22:56N 35°52' E 014°53'0 0.0
2018-Apr-13 22:22N 35°52' E 014°53'0 0.0
2018-Apr-13 21:52N 35°52' E 014°53'0 0.0
2018-Apr-13 20:55N 35°52' E 014°53'0 0.0
2018-Apr-13 19:10N 35°52' E 014°53'0 0.0
2018-Apr-13 18:59N 35°52' E 014°53'0 0.0
2018-Apr-13 18:30N 35°52' E 014°53'0 0.0
2018-Apr-13 17:58N 35°52' E 014°53'0 0.0
2018-Apr-13 17:14N 35°52' E 014°53'0 0.0
2018-Apr-13 16:48N 35°52' E 014°53'0 0.0
2018-Apr-13 16:28N 35°52' E 014°53'0 0.0
2018-Apr-13 15:57N 35°52' E 014°53'0 0.0
2018-Apr-13 15:30N 35°52' E 014°53'0 0.0
2018-Apr-13 14:57N 35°52' E 014°53'0 0.0
2018-Apr-13 14:24N 35°52' E 014°53'0 0.0
2018-Apr-13 13:52N 35°52' E 014°53'0 0.0
2018-Apr-13 13:24N 35°52' E 014°53'0 0.0
2018-Apr-13 11:02N 35°52' E 014°53'0 0.1
2018-Apr-13 10:42N 35°52' E 014°53'0 0.2
2018-Apr-13 10:22N 35°52' E 014°53'1 2.1
2018-Apr-13 10:00N 35°52' E 014°52'2 5.0
2018-Apr-13 09:30N 35°53' E 014°50'2 1.0
2018-Apr-13 07:35N 35°55' E 014°48'0 0.0
2018-Apr-13 06:33N 35°55' E 014°48'0 0.2
2018-Apr-13 06:29N 35°55' E 014°48'0 0.0
2018-Apr-13 06:00N 35°55' E 014°48'0 0.0
2018-Apr-13 05:30N 35°55' E 014°48'0 0.0
2018-Apr-13 04:53N 35°55' E 014°48'0 0.0
2018-Apr-13 04:29N 35°55' E 014°48'0 0.0
2018-Apr-13 03:59N 35°55' E 014°48'0 0.0
2018-Apr-13 03:29N 35°55' E 014°48'0 0.0
2018-Apr-13 02:56N 35°55' E 014°48'0 0.0
2018-Apr-13 02:29N 35°55' E 014°48'0 0.0
2018-Apr-13 01:59N 35°55' E 014°48'0 0.1
2018-Apr-13 01:29N 35°55' E 014°48'0 0.0
2018-Apr-13 01:00N 35°55' E 014°48'0 0.0
2018-Apr-12 22:47N 35°55' E 014°48'0 0.1
2018-Apr-12 22:30N 35°55' E 014°48'0 0.1
2018-Apr-12 21:59N 35°55' E 014°48'0 0.1
2018-Apr-12 20:29N 35°55' E 014°48'0 0.0
2018-Apr-12 19:59N 35°55' E 014°48'0 0.0
2018-Apr-12 19:29N 35°55' E 014°48'0 0.1
2018-Apr-12 18:59N 35°55' E 014°48'0 0.1
2018-Apr-12 18:26N 35°55' E 014°48'0 0.0
2018-Apr-12 17:59N 35°55' E 014°48'0 0.0
2018-Apr-12 17:13N 35°55' E 014°48'0 0.0
2018-Apr-12 16:54N 35°55' E 014°48'0 0.1
2018-Apr-12 16:26N 35°55' E 014°48'0 0.1
2018-Apr-12 15:15N 35°55' E 014°48'0 0.0
2018-Apr-12 14:49N 35°55' E 014°48'0 0.0
2018-Apr-12 12:12N 35°55' E 014°48'0 0.0
2018-Apr-12 11:58N 35°55' E 014°48'0 0.1
2018-Apr-12 11:26N 35°55' E 014°48'0 1.0
2018-Apr-12 10:59N 35°54' E 014°48'2 3.2
2018-Apr-12 10:30N 35°53' E 014°49'3 5.1
2018-Apr-12 09:55N 35°52' E 014°53'3 7.0
2018-Apr-12 09:28N 35°52' E 014°57'5 8.3
2018-Apr-12 08:51N 35°52' E 015°03'3 7.5
2018-Apr-12 08:30N 35°52' E 015°07'1 0.7
2018-Apr-12 07:31N 35°51' E 015°06'0 1.4
2018-Apr-12 07:24N 35°51' E 015°06'2 4.1
2018-Apr-12 07:00N 35°52' E 015°08'3 0.6
2018-Apr-12 02:00N 35°52' E 015°12'0 0.1
2018-Apr-12 01:30N 35°52' E 015°12'0 0.2
2018-Apr-12 00:37N 35°52' E 015°12'0 0.2
2018-Apr-12 00:28N 35°52' E 015°12'0 0.2
2018-Apr-11 23:59N 35°51' E 015°12'0 0.3
2018-Apr-11 23:23N 35°51' E 015°12'2 0.4
2018-Apr-11 19:05N 35°52' E 015°14'8 3.2
2018-Apr-11 16:32N 35°53' E 015°04'0 1.2
2018-Apr-11 16:30N 35°53' E 015°04'1 1.1
2018-Apr-11 16:00N 35°54' E 015°04'2 3.9
2018-Apr-11 15:27N 35°53' E 015°02'3 6.9
2018-Apr-11 15:00N 35°51' E 014°59'2 4.5
2018-Apr-11 14:29N 35°49' E 014°58'16 4.8
2018-Apr-11 11:07N 35°33' E 014°53'0 0.9
2018-Apr-11 11:00N 35°33' E 014°53'1 1.1
2018-Apr-11 10:28N 35°34' E 014°54'1 1.1
2018-Apr-11 09:57N 35°34' E 014°55'1 1.3
2018-Apr-11 09:30N 35°34' E 014°56'0 0.9
2018-Apr-11 09:00N 35°34' E 014°56'1 1.5
2018-Apr-11 08:30N 35°34' E 014°57'0 0.4
2018-Apr-11 08:00N 35°35' E 014°57'0 0.8
2018-Apr-11 07:30N 35°35' E 014°57'0 0.7
2018-Apr-11 06:59N 35°35' E 014°58'0 0.3
2018-Apr-11 06:30N 35°35' E 014°58'0 0.4
2018-Apr-11 05:59N 35°35' E 014°58'0 0.4
2018-Apr-11 05:30N 35°35' E 014°59'0 0.5
2018-Apr-11 05:00N 35°35' E 014°59'0 0.6
2018-Apr-11 04:29N 35°34' E 014°59'0 0.6
2018-Apr-11 04:00N 35°34' E 014°59'0 0.3
2018-Apr-11 03:30N 35°34' E 014°59'2 0.8
2018-Apr-11 01:09N 35°34' E 014°57'1 2.5
2018-Apr-11 00:42N 35°35' E 014°56'1 4.4
2018-Apr-11 00:30N 35°36' E 014°56'2 4.4
2018-Apr-11 00:00N 35°38' E 014°55'  

Dump ship's entire track history